Time;durP1;ratioP1;P1;durP2;ratioP2;P2;SDS_P1;SDS_P2;PMS_P1;PMS_P2;Temp;Humidity;BMP_temperature;BMP_pressure;BME280_temperature;BME280_humidity;BME280_pressure;Samples;Min_cycle;Max_cycle;Signal;HPM_P1;HPM_P2
2021/06/04 00:00:12;;;;;;;9.05;7.70;;;;;;;18.50;83.97;101306.75;5080008;28;20114;-52
2021/06/04 00:02:38;;;;;;;9.82;7.72;;;;;;;18.58;81.96;101305.66;5062400;28;20569;-52
2021/06/04 00:05:06;;;;;;;9.52;7.30;;;;;;;18.65;81.10;101299.28;5051150;28;20040;-50
2021/06/04 00:07:31;;;;;;;8.38;6.88;;;;;;;18.60;81.98;101306.50;5065630;28;20074;-49
2021/06/04 00:09:57;;;;;;;8.80;7.20;;;;;;;18.63;81.96;101298.47;5065236;28;20407;-49
2021/06/04 00:12:33;;;;;;;8.02;7.05;;;;;;;18.56;82.74;101305.72;5078870;28;20749;-51
2021/06/04 00:14:58;;;;;;;8.23;6.75;;;;;;;18.55;81.79;101309.25;5057949;28;20043;-49
2021/06/04 00:17:24;;;;;;;8.80;7.35;;;;;;;18.52;81.88;101309.34;5081426;28;20050;-48
2021/06/04 00:19:51;;;;;;;9.10;7.15;;;;;;;18.58;81.08;101303.03;5062362;28;20031;-48
2021/06/04 00:22:25;;;;;;;8.85;6.90;;;;;;;18.55;81.46;101304.84;5060780;28;20060;-52
2021/06/04 00:24:54;;;;;;;7.22;6.53;;;;;;;18.59;80.82;101310.91;5060702;28;20222;-50
2021/06/04 00:27:22;;;;;;;9.40;7.45;;;;;;;18.51;81.93;101302.31;5053715;28;20484;-49
2021/06/04 00:29:48;;;;;;;8.48;7.53;;;;;;;18.47;82.66;101300.66;5060132;28;20075;-48
2021/06/04 00:32:16;;;;;;;8.75;7.75;;;;;;;18.44;82.69;101306.06;5081984;28;20060;-49
2021/06/04 00:34:42;;;;;;;8.93;7.25;;;;;;;18.41;82.60;101306.16;5082075;28;20115;-48
2021/06/04 00:37:09;;;;;;;10.15;7.40;;;;;;;18.33;84.00;101299.28;5078457;28;20699;-49
2021/06/04 00:39:37;;;;;;;8.57;7.22;;;;;;;18.27;83.76;101304.72;5078864;28;20143;-48
2021/06/04 00:42:05;;;;;;;8.90;7.70;;;;;;;18.24;83.48;101294.22;5065105;28;20036;-49
2021/06/04 00:44:35;;;;;;;8.65;7.75;;;;;;;18.16;84.50;101296.22;5059187;28;20073;-49
2021/06/04 00:47:04;;;;;;;8.27;7.45;;;;;;;18.17;84.53;101293.50;5062726;28;20393;-49
2021/06/04 00:49:29;;;;;;;7.97;7.05;;;;;;;18.28;82.43;101298.53;5047286;28;20036;-49
2021/06/04 00:52:03;;;;;;;7.75;6.72;;;;;;;18.31;81.65;101298.44;5060987;28;20043;-48
2021/06/04 00:54:30;;;;;;;7.60;6.65;;;;;;;18.27;83.40;101302.06;5061479;28;20836;-48
2021/06/04 00:56:58;;;;;;;8.10;7.30;;;;;;;18.12;84.24;101287.47;5063794;28;20036;-50
2021/06/04 00:59:47;;;;;;;8.18;7.38;;;;;;;18.02;84.37;101293.94;5080345;28;20047;-54
2021/06/04 01:02:24;;;;;;;8.85;6.63;;;;;;;18.11;82.31;101292.81;5057832;28;20044;-54
2021/06/04 01:04:50;;;;;;;7.28;6.50;;;;;;;18.17;82.05;101280.28;5065996;28;20421;-52
2021/06/04 01:07:19;;;;;;;7.90;6.80;;;;;;;18.20;81.96;101290.78;5063305;28;20085;-50
2021/06/04 01:10:02;;;;;;;7.45;6.57;;;;;;;18.15;82.52;101294.47;5076937;28;20231;-51
2021/06/04 01:12:55;;;;;;;7.75;6.95;;;;;;;18.07;84.08;101301.72;5063435;28;20044;-49
2021/06/04 01:15:44;;;;;;;9.85;7.20;;;;;;;18.04;83.62;101303.56;5064680;28;20553;-50
2021/06/04 01:18:28;;;;;;;8.38;6.93;;;;;;;18.13;81.91;101291.00;5058671;28;20051;-48
2021/06/04 01:21:10;;;;;;;7.13;6.43;;;;;;;18.19;80.97;101297.00;5067372;28;20040;-49
2021/06/04 01:23:52;;;;;;;9.32;7.03;;;;;;;18.17;82.09;101295.31;5066045;28;20036;-49
2021/06/04 01:26:55;;;;;;;9.63;7.85;;;;;;;18.00;84.39;101295.75;5082393;28;20055;-49
2021/06/04 01:29:40;;;;;;;7.82;7.03;;;;;;;17.96;83.75;101302.03;5026092;28;21873;-51
2021/06/04 01:32:15;;;;;;;8.70;7.07;;;;;;;18.08;82.06;101299.03;5085013;28;20055;-49
2021/06/04 01:34:45;;;;;;;8.05;6.85;;;;;;;18.07;82.63;101296.44;5068369;28;20036;-48
2021/06/04 01:37:19;;;;;;;9.13;7.05;;;;;;;18.02;82.34;101291.28;5064570;28;20740;-52
2021/06/04 01:40:11;;;;;;;8.43;7.15;;;;;;;18.02;82.28;101297.44;5061764;28;20046;-50
2021/06/04 01:42:45;;;;;;;8.55;7.15;;;;;;;18.00;82.73;101298.41;5080958;28;20571;-52
2021/06/04 01:45:46;;;;;;;7.80;6.93;;;;;;;17.98;83.17;101302.84;5050229;28;20040;-53
2021/06/04 01:48:21;;;;;;;8.18;7.38;;;;;;;18.02;82.34;101310.66;5041571;28;20059;-51
2021/06/04 01:50:57;;;;;;;8.05;7.25;;;;;;;17.89;83.14;101306.56;5071092;28;20502;-49
2021/06/04 01:53:31;;;;;;;8.20;6.72;;;;;;;18.06;81.81;101315.88;5054796;28;20126;-49
2021/06/04 01:56:04;;;;;;;9.63;7.32;;;;;;;17.88;83.73;101312.75;5064405;28;20028;-49
2021/06/04 01:58:41;;;;;;;8.13;6.72;;;;;;;17.93;82.94;101310.91;5067483;28;20068;-50
2021/06/04 02:01:14;;;;;;;8.80;7.80;;;;;;;17.85;84.34;101303.13;5061173;28;20274;-50
2021/06/04 02:03:42;;;;;;;10.98;8.25;;;;;;;17.77;84.12;101310.38;5040274;28;20040;-50
2021/06/04 02:06:17;;;;;;;10.25;7.90;;;;;;;17.77;83.66;101297.16;5062377;28;20266;-50
2021/06/04 02:08:53;;;;;;;9.88;7.57;;;;;;;17.85;82.88;101304.91;5057230;28;20040;-49
2021/06/04 02:11:32;;;;;;;7.78;6.97;;;;;;;17.76;83.99;101307.78;5072326;28;20187;-52
2021/06/04 02:14:03;;;;;;;7.95;7.00;;;;;;;17.69;84.51;101310.56;5060726;27;20031;-50
2021/06/04 02:16:49;;;;;;;9.05;7.57;;;;;;;17.62;85.57;101305.47;5061383;28;20025;-49
2021/06/04 02:19:28;;;;;;;9.43;7.27;;;;;;;17.60;84.73;101305.50;5046427;28;20557;-52
2021/06/04 02:22:13;;;;;;;9.10;7.90;;;;;;;17.56;84.51;101305.63;5047326;28;20779;-51
2021/06/04 02:24:52;;;;;;;10.02;7.60;;;;;;;17.62;84.83;101310.75;5067655;28;20199;-48
2021/06/04 02:27:26;;;;;;;8.05;7.25;;;;;;;17.55;84.90;101312.66;5068100;28;20036;-50
2021/06/04 02:30:15;;;;;;;9.05;8.07;;;;;;;17.45;86.09;101306.72;5045242;28;20044;-50
2021/06/04 02:32:47;;;;;;;;;;;;;;;17.46;84.31;101308.47;5071157;28;20036;-50
2021/06/04 02:35:25;;;;;;;8.23;6.97;;;;;;;17.56;84.02;101314.41;5077458;28;19925;-50
2021/06/04 02:37:57;;;;;;;8.80;7.38;;;;;;;17.51;84.81;101309.25;5061118;28;20051;-50
2021/06/04 02:40:36;;;;;;;8.65;7.75;;;;;;;17.52;83.92;101313.59;5062239;28;20048;-50
2021/06/04 02:43:09;;;;;;;8.68;7.07;;;;;;;17.57;83.04;101316.16;5051616;28;20039;-49
2021/06/04 02:45:46;;;;;;;9.73;7.15;;;;;;;17.58;83.48;101317.00;5066844;28;20040;-50
2021/06/04 02:48:17;;;;;;;8.32;7.53;;;;;;;17.50;85.18;101314.53;5071115;28;20147;-50
2021/06/04 02:50:51;;;;;;;8.80;7.35;;;;;;;17.47;84.66;101311.97;5027468;28;20413;-50
2021/06/04 02:53:23;;;;;;;8.18;6.68;;;;;;;17.55;82.95;101317.09;5063965;28;20883;-48
2021/06/04 02:56:24;;;;;;;7.22;6.25;;;;;;;17.86;80.66;101320.72;5085281;28;20039;-49
2021/06/04 02:58:57;;;;;;;7.97;6.93;;;;;;;17.76;83.02;101327.13;5061075;28;20531;-48
2021/06/04 03:01:24;;;;;;;8.63;7.78;;;;;;;17.45;85.46;101321.72;5080215;28;20044;-51
2021/06/04 03:03:52;;;;;;;;;;;;;;;17.40;85.50;101329.72;5064139;28;20036;-50
2021/06/04 03:06:24;;;;;;;8.30;7.05;;;;;;;17.42;83.71;101333.22;5075265;28;20011;-49
2021/06/04 03:08:57;;;;;;;9.10;7.18;;;;;;;17.36;84.80;101334.25;5053007;28;20071;-50
2021/06/04 03:11:23;;;;;;;8.32;7.53;;;;;;;17.33;85.20;101330.78;5060704;28;20039;-48
2021/06/04 03:13:50;;;;;;;9.95;8.23;;;;;;;17.23;86.36;101335.41;5070187;28;20031;-50
2021/06/04 03:16:22;;;;;;;7.88;7.00;;;;;;;17.33;84.29;101334.31;5061846;28;20032;-49
2021/06/04 03:19:03;;;;;;;9.25;7.10;;;;;;;17.36;84.20;101342.16;5026670;28;20040;-50
2021/06/04 03:21:36;;;;;;;10.18;7.40;;;;;;;17.42;83.16;101334.97;5062927;28;20068;-49
2021/06/04 03:24:05;;;;;;;8.10;7.03;;;;;;;17.44;84.10;101334.06;5070002;28;20439;-48
2021/06/04 03:26:32;;;;;;;9.55;7.60;;;;;;;17.44;83.14;101338.47;5064390;28;20028;-49
2021/06/04 03:29:07;;;;;;;9.25;7.45;;;;;;;17.51;82.83;101340.97;5043764;28;20039;-53
2021/06/04 03:31:36;;;;;;;9.32;7.50;;;;;;;17.41;84.68;101342.06;5043948;28;20439;-50
2021/06/04 03:34:06;;;;;;;9.02;7.10;;;;;;;17.33;83.82;101346.63;5022993;28;20597;-49
2021/06/04 03:36:36;;;;;;;7.63;6.82;;;;;;;17.51;82.39;101348.88;5057050;28;20044;-49
2021/06/04 03:39:09;;;;;;;9.82;7.40;;;;;;;17.76;80.90;101355.38;5058470;28;20040;-51
2021/06/04 03:41:36;;;;;;;7.93;7.10;;;;;;;17.58;83.52;101354.88;5068071;28;20043;-53
2021/06/04 03:44:08;;;;;;;7.97;6.97;;;;;;;17.47;84.24;101360.44;5058554;28;20116;-50
2021/06/04 03:46:35;;;;;;;7.63;6.82;;;;;;;17.29;85.65;101363.47;5022130;28;20127;-50
2021/06/04 03:49:02;;;;;;;9.20;7.70;;;;;;;17.29;85.79;101364.34;5048361;28;20154;-52
2021/06/04 03:51:32;;;;;;;9.05;7.47;;;;;;;17.26;86.27;101359.09;5079687;28;20074;-50
2021/06/04 03:53:59;;;;;;;9.40;7.70;;;;;;;17.19;86.63;101360.16;5077107;28;20032;-53
2021/06/04 03:56:26;;;;;;;8.32;7.43;;;;;;;17.19;86.25;101354.88;5080642;28;20043;-49
2021/06/04 03:58:53;;;;;;;8.52;6.85;;;;;;;17.21;84.55;101361.00;5079741;27;20400;-48
2021/06/04 04:01:32;;;;;;;8.93;7.53;;;;;;;17.33;84.58;101355.47;5071542;28;20059;-49
2021/06/04 04:03:59;;;;;;;8.82;7.35;;;;;;;17.26;85.44;101351.19;5049227;28;20043;-51
2021/06/04 04:06:25;;;;;;;8.35;7.45;;;;;;;17.24;85.20;101353.00;5059895;28;20134;-52
2021/06/04 04:08:51;;;;;;;8.05;7.25;;;;;;;17.24;nan;101358.28;5077737;28;20212;-49
2021/06/04 04:11:18;;;;;;;7.68;6.88;;;;;;;17.36;82.60;101355.38;5073986;28;20047;-51
2021/06/04 04:13:44;;;;;;;8.93;7.25;;;;;;;17.47;82.57;101351.63;5069030;27;20111;-52
2021/06/04 04:16:11;;;;;;;8.40;7.60;;;;;;;17.61;82.83;101365.41;5067041;28;20107;-52
2021/06/04 04:18:38;;;;;;;9.82;7.32;;;;;;;17.59;82.02;101361.91;5067664;28;20362;-51
2021/06/04 04:21:07;;;;;;;10.75;7.80;;;;;;;17.65;83.03;101363.53;5051096;28;20048;-52
2021/06/04 04:23:44;;;;;;;8.45;7.38;;;;;;;17.47;85.17;101362.19;5054156;28;20045;-50
2021/06/04 04:26:16;;;;;;;8.30;7.47;;;;;;;17.38;85.94;101358.00;5034507;28;20606;-54
2021/06/04 04:28:45;;;;;;;8.75;7.85;;;;;;;17.29;86.10;101358.19;5051211;28;20035;-52
2021/06/04 04:31:15;;;;;;;8.52;7.68;;;;;;;17.26;84.97;101355.59;5068824;28;20033;-50
2021/06/04 04:33:41;;;;;;;8.40;7.38;;;;;;;17.25;85.65;101362.69;5067988;28;20036;-51
2021/06/04 04:36:09;;;;;;;10.27;8.50;;;;;;;17.35;83.52;101355.41;5066554;28;20040;-52
2021/06/04 04:38:35;;;;;;;8.70;6.75;;;;;;;17.32;83.54;101366.91;5052162;28;20130;-49
2021/06/04 04:41:03;;;;;;;7.82;6.97;;;;;;;17.34;83.96;101365.09;5070151;28;20353;-52
2021/06/04 04:43:34;;;;;;;9.52;7.07;;;;;;;17.35;83.64;101364.22;5047330;28;20063;-51
2021/06/04 04:46:01;;;;;;;7.80;6.63;;;;;;;17.43;83.02;101361.41;5050862;27;20036;-51
2021/06/04 04:48:27;;;;;;;8.88;7.93;;;;;;;17.35;85.49;101356.28;5051826;28;20410;-52
2021/06/04 04:50:55;;;;;;;8.88;7.85;;;;;;;17.34;85.88;101356.31;5050010;27;20041;-51
2021/06/04 04:53:23;;;;;;;9.85;8.30;;;;;;;17.31;85.73;101357.25;5051191;27;20113;-51
2021/06/04 04:55:48;;;;;;;9.10;7.60;;;;;;;17.35;83.87;101353.63;5051854;27;20032;-49
2021/06/04 04:58:15;;;;;;;9.10;8.20;;;;;;;17.33;84.34;101355.47;5054672;28;21854;-50
2021/06/04 05:00:42;;;;;;;10.57;8.50;;;;;;;17.34;85.03;101359.81;5054425;27;20047;-50
2021/06/04 05:03:12;;;;;;;9.43;8.20;;;;;;;17.40;84.93;101368.53;5050285;28;20037;-49
2021/06/04 05:05:39;;;;;;;9.07;8.07;;;;;;;17.40;84.42;101363.25;5050388;28;20045;-50
2021/06/04 05:08:06;;;;;;;10.18;8.88;;;;;;;17.43;84.66;101361.41;5054171;28;20045;-49
2021/06/04 05:10:33;;;;;;;9.63;8.30;;;;;;;17.42;85.09;101364.94;5055308;28;20032;-50
2021/06/04 05:12:59;;;;;;;8.70;7.80;;;;;;;17.51;83.81;101363.84;5054495;28;20039;-50
2021/06/04 05:15:30;;;;;;;9.55;7.88;;;;;;;17.57;82.53;101370.78;5051387;28;20660;-49
2021/06/04 05:17:57;;;;;;;10.45;8.52;;;;;;;17.58;84.81;101369.88;5069155;28;20116;-52
2021/06/04 05:20:24;;;;;;;11.30;9.32;;;;;;;17.63;83.41;101373.31;5074852;28;20040;-49
2021/06/04 05:22:50;;;;;;;8.70;7.85;;;;;;;17.79;79.15;101376.44;5068318;28;20036;-49
2021/06/04 05:25:20;;;;;;;10.30;8.32;;;;;;;17.95;80.68;101380.50;5075009;28;20066;-50
2021/06/04 05:27:46;;;;;;;10.38;7.55;;;;;;;18.04;78.82;101387.31;5072158;28;20040;-54
2021/06/04 05:30:17;;;;;;;10.48;9.00;;;;;;;18.10;79.72;101386.34;5069948;28;20046;-49
2021/06/04 05:32:43;;;;;;;9.02;7.47;;;;;;;18.08;79.68;101385.50;5037590;28;20055;-51
2021/06/04 05:35:10;;;;;;;10.43;8.68;;;;;;;18.13;82.89;101384.47;5051324;28;20075;-50
2021/06/04 05:37:37;;;;;;;9.93;8.75;;;;;;;18.08;83.38;101383.69;5052803;28;20073;-50
2021/06/04 05:40:09;;;;;;;8.93;7.78;;;;;;;18.22;80.51;101391.31;5070075;28;20056;-50
2021/06/04 05:42:35;;;;;;;11.55;9.30;;;;;;;18.30;79.62;101397.25;5068808;28;20105;-51
2021/06/04 05:45:01;;;;;;;12.00;9.63;;;;;;;18.30;82.36;101402.56;5035712;28;20043;-49
2021/06/04 05:47:28;;;;;;;10.90;9.38;;;;;;;18.34;81.17;101398.06;5070705;28;20054;-52
2021/06/04 05:49:54;;;;;;;12.00;9.10;;;;;;;18.39;81.94;101393.53;5052488;28;20062;-49
2021/06/04 05:52:21;;;;;;;10.45;8.75;;;;;;;18.47;80.66;101395.97;5072905;28;20036;-50
2021/06/04 05:54:48;;;;;;;10.80;8.57;;;;;;;18.36;81.95;101391.84;5072300;28;20940;-50
2021/06/04 05:57:16;;;;;;;10.55;8.75;;;;;;;19.00;79.11;101396.31;5035391;28;20156;-49
2021/06/04 05:59:43;;;;;;;12.52;8.38;;;;;;;18.67;77.29;101388.38;5044602;28;20424;-51
2021/06/04 06:02:11;;;;;;;11.40;8.82;;;;;;;18.80;78.98;101390.69;5068012;28;20047;-49
2021/06/04 06:04:40;;;;;;;;;;;;;;;18.65;78.51;101395.50;5070398;28;20676;-49
2021/06/04 06:07:06;;;;;;;10.07;8.20;;;;;;;18.66;76.80;101391.06;5067126;28;19917;-49
2021/06/04 06:09:32;;;;;;;9.35;8.18;;;;;;;18.78;79.39;101390.72;5074258;28;20050;-51
2021/06/04 06:11:58;;;;;;;10.70;8.77;;;;;;;19.08;79.27;101398.78;5076809;28;20035;-49
2021/06/04 06:14:24;;;;;;;10.77;9.02;;;;;;;18.81;79.92;101397.72;5072123;28;20096;-50
2021/06/04 06:16:50;;;;;;;9.07;7.72;;;;;;;18.84;76.73;101394.97;5067805;28;20039;-53
2021/06/04 06:19:19;;;;;;;8.40;7.50;;;;;;;18.84;77.24;101395.88;5077494;28;20032;-49
2021/06/04 06:21:50;;;;;;;10.25;8.65;;;;;;;18.94;79.05;101399.16;5070964;28;20585;-50
2021/06/04 06:24:16;;;;;;;9.90;7.82;;;;;;;18.91;76.43;101395.72;5076012;28;20040;-50
2021/06/04 06:26:43;;;;;;;11.80;8.93;;;;;;;18.79;79.67;101391.59;5066485;28;20040;-50
2021/06/04 06:29:12;;;;;;;10.57;7.88;;;;;;;18.76;80.49;101391.69;5052104;28;20146;-54
2021/06/04 06:31:41;;;;;;;9.80;8.65;;;;;;;19.21;79.19;101399.28;5062754;28;20055;-50
2021/06/04 06:34:08;;;;;;;10.05;9.05;;;;;;;19.04;79.50;101399.78;5072407;28;20097;-53
2021/06/04 06:36:38;;;;;;;13.82;10.80;;;;;;;19.73;76.85;101400.34;5022249;28;20032;-51
2021/06/04 06:39:16;;;;;;;11.13;9.85;;;;;;;19.31;78.38;101400.72;5056322;28;20169;-51
2021/06/04 06:41:45;;;;;;;11.27;10.05;;;;;;;19.14;79.17;101397.72;5073138;28;20071;-52
2021/06/04 06:44:11;;;;;;;11.52;9.75;;;;;;;19.00;78.49;101396.31;5067050;27;20560;-52
2021/06/04 06:46:39;;;;;;;13.15;9.80;;;;;;;18.96;80.52;101409.72;5050622;28;20106;-49
2021/06/04 06:49:07;;;;;;;10.85;9.13;;;;;;;19.10;76.98;101414.63;5069890;28;20527;-49
2021/06/04 06:51:35;;;;;;;12.70;9.70;;;;;;;19.17;75.99;101409.09;5069065;28;20504;-49
2021/06/04 06:54:02;;;;;;;11.20;10.00;;;;;;;19.58;77.70;101419.41;5069000;28;20075;-50
2021/06/04 06:56:28;;;;;;;13.27;10.00;;;;;;;19.77;76.27;101419.72;5070615;28;20051;-50
2021/06/04 06:58:54;;;;;;;11.93;10.35;;;;;;;19.45;77.58;101423.31;5068478;28;20499;-52
2021/06/04 07:01:24;;;;;;;12.35;10.25;;;;;;;19.61;78.95;101423.75;5054162;28;20036;-52
2021/06/04 07:03:50;;;;;;;10.40;9.30;;;;;;;19.96;75.98;101420.00;5071017;28;20439;-50
2021/06/04 07:06:25;;;;;;;11.27;9.65;;;;;;;20.13;75.99;101421.25;5066783;28;20044;-54
2021/06/04 07:08:52;;;;;;;11.35;10.05;;;;;;;19.93;76.85;101424.56;5070503;28;20035;-50
2021/06/04 07:11:18;;;;;;;10.45;9.25;;;;;;;19.76;75.31;101427.69;5068149;28;20138;-55
2021/06/04 07:13:45;;;;;;;12.07;9.38;;;;;;;19.76;75.41;101425.03;5071456;28;20040;-54
2021/06/04 07:16:12;;;;;;;10.98;9.57;;;;;;;19.72;76.98;101422.47;5070194;28;20152;-51
2021/06/04 07:18:38;;;;;;;11.82;10.45;;;;;;;19.74;78.15;101428.63;5062826;28;20075;-52
2021/06/04 07:21:09;;;;;;;12.70;11.23;;;;;;;20.50;76.48;101426.19;5043398;28;20412;-51
2021/06/04 07:23:36;;;;;;;13.93;10.40;;;;;;;20.19;77.65;101423.72;5047491;28;20032;-50
2021/06/04 07:26:03;;;;;;;14.48;11.35;;;;;;;19.99;77.95;101425.25;5034225;28;20870;-52
2021/06/04 07:28:31;;;;;;;12.52;10.77;;;;;;;20.01;76.64;101420.72;5046443;28;20286;-53
2021/06/04 07:30:59;;;;;;;;;;;;;;;20.02;75.30;101422.47;5030603;28;20048;-51
2021/06/04 07:33:33;;;;;;;13.52;11.18;;;;;;;20.36;77.11;101421.34;5026963;28;20365;-53
2021/06/04 07:36:02;;;;;;;13.70;11.38;;;;;;;20.64;74.61;101428.38;5003025;28;20139;-54
2021/06/04 07:38:29;;;;;;;14.43;11.52;;;;;;;20.28;74.79;101428.69;5014274;28;20454;-49
2021/06/04 07:40:59;;;;;;;13.80;11.88;;;;;;;20.25;73.77;101431.47;5041849;28;20191;-51
2021/06/04 07:43:30;;;;;;;13.10;11.73;;;;;;;20.18;75.32;101427.28;5013198;28;20036;-53
2021/06/04 07:46:00;;;;;;;12.75;10.52;;;;;;;20.19;76.02;101431.69;5035545;28;20080;-51
2021/06/04 07:48:26;;;;;;;12.57;11.27;;;;;;;20.35;75.52;101429.38;5011408;28;20040;-53
2021/06/04 07:50:55;;;;;;;13.55;11.55;;;;;;;20.33;73.63;101426.75;5038399;28;20089;-50
2021/06/04 07:53:27;;;;;;;12.75;11.35;;;;;;;20.32;74.43;101421.50;5015083;28;20047;-52
2021/06/04 07:55:54;;;;;;;11.80;10.60;;;;;;;20.62;74.65;101418.75;5008838;28;20028;-51
2021/06/04 07:58:20;;;;;;;13.18;11.55;;;;;;;20.82;74.89;101420.72;4967991;28;20126;-51
2021/06/04 08:00:47;;;;;;;13.18;11.73;;;;;;;20.77;74.77;101415.56;5037566;28;20333;-51
2021/06/04 08:03:19;;;;;;;14.88;12.10;;;;;;;20.56;75.36;101422.44;5007996;28;20052;-54
2021/06/04 08:05:46;;;;;;;13.35;11.70;;;;;;;21.01;73.55;101418.28;5005508;28;20040;-51
2021/06/04 08:08:15;;;;;;;13.35;10.98;;;;;;;20.87;73.41;101413.44;5009390;28;20617;-52
2021/06/04 08:10:41;;;;;;;13.80;12.35;;;;;;;21.20;72.57;101421.13;4999425;28;20410;-51
2021/06/04 08:13:13;;;;;;;13.50;12.02;;;;;;;20.95;73.39;101421.13;4983997;28;20082;-52
2021/06/04 08:15:49;;;;;;;13.40;11.85;;;;;;;20.74;72.32;101429.81;5045257;28;20046;-49
2021/06/04 08:18:17;;;;;;;18.25;12.00;;;;;;;20.75;74.06;101423.59;4989704;28;20320;-51
2021/06/04 08:20:44;;;;;;;13.57;11.98;;;;;;;21.07;73.16;101418.03;5003008;28;20044;-52
2021/06/04 08:23:15;;;;;;;14.93;12.60;;;;;;;21.03;74.17;101405.78;5022833;28;20426;-50
2021/06/04 08:25:45;;;;;;;13.40;12.00;;;;;;;20.96;72.76;101428.19;5005669;28;20039;-53
2021/06/04 08:28:11;;;;;;;14.25;12.55;;;;;;;21.05;73.23;101418.09;5045815;28;20732;-51
2021/06/04 08:30:39;;;;;;;15.60;13.80;;;;;;;21.09;72.28;101417.06;5018992;28;20059;-52
2021/06/04 08:33:26;;;;;;;17.33;12.93;;;;;;;21.01;72.01;101413.81;5021662;28;20045;-55
2021/06/04 08:35:54;;;;;;;16.13;12.55;;;;;;;21.94;69.36;101410.28;5045467;28;20618;-52
2021/06/04 08:38:20;;;;;;;14.60;13.10;;;;;;;21.89;69.16;101410.47;5020704;28;20493;-52
2021/06/04 08:40:48;;;;;;;15.52;13.05;;;;;;;21.84;69.44;101412.44;5041682;28;20460;-52
2021/06/04 08:43:44;;;;;;;15.63;14.00;;;;;;;21.48;70.07;101409.44;5021629;28;20128;-49
2021/06/04 08:46:20;;;;;;;15.95;14.25;;;;;;;21.51;69.80;101407.50;5027661;28;20755;-54
2021/06/04 08:48:51;;;;;;;14.23;12.73;;;;;;;21.41;71.83;101406.13;5042518;28;20060;-51
2021/06/04 08:51:35;;;;;;;15.27;13.70;;;;;;;21.61;71.65;101410.69;5044476;28;20804;-51
2021/06/04 08:54:30;;;;;;;16.45;13.32;;;;;;;22.12;68.75;101408.66;5035467;28;20478;-52
2021/06/04 08:57:15;;;;;;;15.68;14.07;;;;;;;21.91;70.11;101402.44;5025311;28;20482;-51
2021/06/04 08:59:44;;;;;;;15.10;13.43;;;;;;;21.86;71.16;101407.94;5025780;28;20659;-51
2021/06/04 09:02:19;;;;;;;14.23;12.65;;;;;;;22.47;68.44;101405.47;5025057;28;20056;-56
2021/06/04 09:04:53;;;;;;;17.75;13.90;;;;;;;22.18;68.53;101404.88;5018700;28;20532;-54
2021/06/04 09:07:24;;;;;;;15.93;14.27;;;;;;;22.12;67.68;101408.66;5014267;28;20040;-53
2021/06/04 09:09:50;;;;;;;17.52;15.48;;;;;;;22.50;66.20;101408.00;5028837;28;20291;-54
2021/06/04 09:12:23;;;;;;;15.25;13.38;;;;;;;22.89;65.43;101401.88;5011916;28;20099;-52
2021/06/04 09:14:52;;;;;;;16.67;14.48;;;;;;;22.85;65.96;101400.28;5029604;28;20063;-54
2021/06/04 09:17:43;;;;;;;17.27;13.55;;;;;;;22.56;66.39;101395.28;5043607;28;20110;-52
2021/06/04 09:20:15;;;;;;;17.35;13.98;;;;;;;22.61;65.91;101395.09;5052504;28;20040;-50
2021/06/04 09:22:47;;;;;;;15.27;13.55;;;;;;;22.88;65.77;101387.66;5030854;28;20120;-51
2021/06/04 09:25:21;;;;;;;16.60;13.18;;;;;;;22.58;65.95;101392.56;4998742;28;22116;-53
2021/06/04 09:28:07;;;;;;;14.15;12.75;;;;;;;22.70;66.43;101389.34;5022403;28;20041;-52
2021/06/04 09:30:51;;;;;;;15.57;13.98;;;;;;;22.66;65.71;101395.75;5010908;28;20074;-50
2021/06/04 09:33:44;;;;;;;18.35;13.60;;;;;;;22.49;66.56;101387.66;4998736;28;20097;-53
2021/06/04 09:36:17;;;;;;;18.88;16.08;;;;;;;22.55;64.97;101398.03;5031196;28;20054;-50
2021/06/04 09:38:53;;;;;;;16.40;14.40;;;;;;;22.71;65.80;101383.09;5029091;28;20485;-53
2021/06/04 09:41:25;;;;;;;18.67;14.60;;;;;;;22.80;62.59;101381.81;5004844;28;20048;-56
2021/06/04 09:44:07;;;;;;;21.80;15.75;;;;;;;22.66;62.75;101386.91;5027949;28;20039;-50
2021/06/04 09:46:51;;;;;;;17.02;14.13;;;;;;;22.44;63.69;101388.72;5051157;28;20382;-52
2021/06/04 09:49:46;;;;;;;18.27;16.42;;;;;;;22.37;63.56;101384.56;5030692;28;21640;-51
2021/06/04 09:52:37;;;;;;;17.83;15.80;;;;;;;22.55;62.96;101382.03;5043678;28;21918;-52
2021/06/04 09:55:27;;;;;;;16.88;15.10;;;;;;;22.74;61.46;101382.09;5010801;28;20047;-52
2021/06/04 09:57:59;;;;;;;15.95;13.77;;;;;;;22.72;62.46;101376.84;5029486;28;20056;-53
2021/06/04 10:00:33;;;;;;;16.73;14.95;;;;;;;22.61;60.85;101374.66;5015536;28;20044;-52
2021/06/04 10:03:21;;;;;;;15.68;14.00;;;;;;;22.83;61.88;101375.47;5045939;28;20113;-51
2021/06/04 10:05:47;;;;;;;16.73;13.52;;;;;;;22.83;63.71;101372.81;5018418;28;20044;-53
2021/06/04 10:08:15;;;;;;;16.90;14.02;;;;;;;23.01;60.43;101373.78;5007779;28;20101;-50
2021/06/04 10:10:41;;;;;;;20.98;15.43;;;;;;;22.98;60.18;101371.25;5028986;28;20199;-50
2021/06/04 10:13:33;;;;;;;15.50;13.82;;;;;;;23.18;59.84;101368.56;5016463;28;20405;-49
2021/06/04 10:16:02;;;;;;;17.85;13.98;;;;;;;23.32;57.74;101378.59;5010270;28;20063;-51
2021/06/04 10:18:38;;;;;;;16.77;13.43;;;;;;;23.62;56.51;101368.25;5047896;28;20032;-52
2021/06/04 10:21:38;;;;;;;19.85;14.88;;;;;;;23.51;57.37;101367.03;5032918;28;20051;-55
2021/06/04 10:24:04;;;;;;;20.77;15.05;;;;;;;23.46;57.44;101370.78;5019087;28;20044;-52
2021/06/04 10:26:38;;;;;;;18.95;15.98;;;;;;;23.39;54.94;101361.34;5027866;28;20285;-55
2021/06/04 10:29:08;;;;;;;20.35;17.90;;;;;;;23.98;53.35;101366.53;5017416;28;20036;-55
2021/06/04 10:31:44;;;;;;;18.23;16.30;;;;;;;23.59;56.78;101371.09;5065843;28;20028;-54
2021/06/04 10:34:17;;;;;;;17.27;15.45;;;;;;;23.60;55.18;101366.59;5052854;28;20611;-53
2021/06/04 10:36:47;;;;;;;16.77;15.00;;;;;;;23.45;58.59;101370.88;5064885;28;20160;-54
2021/06/04 10:39:19;;;;;;;16.90;15.13;;;;;;;23.58;55.44;101357.78;5047220;28;20048;-52
2021/06/04 10:42:06;;;;;;;16.20;14.50;;;;;;;23.62;56.87;101365.59;5041594;28;20041;-53
2021/06/04 10:45:06;;;;;;;18.77;16.77;;;;;;;24.21;54.41;101357.38;5043541;28;20474;-52
2021/06/04 10:48:13;;;;;;;17.10;15.30;;;;;;;24.11;54.45;101354.31;5061859;28;20140;-53
2021/06/04 10:50:39;;;;;;;16.95;15.38;;;;;;;24.19;54.37;101348.59;5038686;28;20051;-51
2021/06/04 10:53:48;;;;;;;18.05;15.57;;;;;;;24.24;54.05;101351.84;5059433;28;20175;-51
2021/06/04 10:56:27;;;;;;;17.17;15.35;;;;;;;24.17;53.97;101345.13;5016203;28;20047;-52
2021/06/04 10:59:03;;;;;;;16.05;13.77;;;;;;;24.13;53.35;101338.19;5062601;28;20508;-54
2021/06/04 11:01:49;;;;;;;17.15;14.73;;;;;;;24.05;53.87;101340.41;5057446;28;20897;-51
2021/06/04 11:04:58;;;;;;;15.43;13.95;;;;;;;24.37;51.78;101328.06;5055602;28;20570;-51
2021/06/04 11:07:33;;;;;;;16.15;13.85;;;;;;;24.47;52.04;101337.31;5045468;28;21508;-52
2021/06/04 11:10:22;;;;;;;14.77;13.38;;;;;;;24.35;53.22;101342.44;5040717;28;20558;-54
2021/06/04 11:13:26;;;;;;;16.73;15.02;;;;;;;24.53;51.76;101324.56;5061801;28;20055;-51
2021/06/04 11:16:00;;;;;;;14.50;13.02;;;;;;;25.06;51.16;101328.88;5030788;28;20055;-51
2021/06/04 11:18:35;;;;;;;16.10;14.45;;;;;;;24.91;53.20;101324.34;5059634;28;20079;-53
2021/06/04 11:21:02;;;;;;;14.50;13.00;;;;;;;24.93;52.59;101317.97;5059219;28;20036;-54
2021/06/04 11:23:48;;;;;;;15.50;13.73;;;;;;;25.06;52.52;101319.97;5064598;28;20051;-53
2021/06/04 11:26:20;;;;;;;16.13;14.55;;;;;;;25.07;49.96;101324.38;5066435;28;20047;-55
2021/06/04 11:29:04;;;;;;;16.40;14.70;;;;;;;24.81;50.49;101316.84;5059942;28;20040;-52
2021/06/04 11:32:12;;;;;;;17.10;15.40;;;;;;;24.60;50.00;101308.16;5064500;28;20036;-52
2021/06/04 11:34:59;;;;;;;16.83;14.98;;;;;;;24.40;53.31;101298.50;5045431;28;20367;-52
2021/06/04 11:37:56;;;;;;;15.93;14.38;;;;;;;24.59;54.22;101293.06;5042598;28;21625;-52
2021/06/04 11:40:45;;;;;;;17.20;15.20;;;;;;;24.58;51.36;101285.13;5039627;28;20143;-55
2021/06/04 11:43:14;;;;;;;16.42;14.27;;;;;;;24.77;50.63;101280.53;5040660;28;20419;-54
2021/06/04 11:45:43;;;;;;;16.05;14.45;;;;;;;24.92;52.47;101283.28;5040552;28;20440;-50